El Fayoum, Egypt
Current Conditions -  °F | °C
As of 10:00 AM on Friday 19 Dec 2014 (Local Time) from HECA Reporting Station
Haze Haze  
Wind Chill: 68°   Ceiling: Unl
Heat Index: 68°   Visibility: 2.5mi
Dew Point: 45°   Wind: 0mph
Humidity: 43%   Direction: NA
Pressure: 30.12"   Gusts: NA
Location:  29.32°N, 30.83°E
Report Text: HECA 190800Z 00000KT 4000 HZ NSC 20/07 Q1020 NOSIG
Loading
Personal Weather Stations






























Interactive Weather Map New forecast layout! Learn more

10-Day Weather Forecast

Advertisements
Track Severe Weather on mobile